West Salem, Wisconsin
Current Conditions -  °F | °C
As of 6:09 PM on Friday 24 Oct 2014 (Local Time) from KLSE Reporting Station
Overcast Overcast  
Wind Chill: 61°   Ceiling: 1500
Heat Index: 61°   Visibility: 10mi
Dew Point: 56°   Wind: 8mph
Humidity: 83%   Direction: 220°SW
Pressure: 29.89"   Gusts: NA
Location:  43.9°N, 91.08°W
Report Text: KLSE 242309Z 22007KT 10SM BKN015 OVC022 16/13 A2989 RMK AO2 T01610133
Loading
Personal Weather Stations






























Interactive Weather Map
Tropical Storm Tracking
New forecast layout! Learn more

10-Day Weather Forecast

Advertisements
Track Severe Weather on mobile